createdAt,value
2018-01-02T00:01:53.610Z,94430.24
2018-01-02T00:04:21.085Z,94453.23
2018-01-02T00:06:48.532Z,94458.68
2018-01-02T00:09:15.980Z,94459.26
2018-01-02T00:11:43.448Z,94463.84
2018-01-02T00:14:10.905Z,94456.52
2018-01-02T00:16:38.362Z,94480.73
2018-01-02T00:19:05.836Z,94486.17
2018-01-02T00:21:33.300Z,94491.73
2018-01-02T00:24:00.804Z,94498.59
2018-01-02T00:26:28.284Z,94495.78
2018-01-02T00:28:55.735Z,94509.56
2018-01-02T00:31:23.188Z,94503.13
2018-01-02T00:33:50.674Z,94492.77
2018-01-02T00:36:18.132Z,94533.14
2018-01-02T00:38:45.580Z,94518.55
2018-01-02T00:41:13.096Z,94535.97
2018-01-02T00:43:40.544Z,94531.86
2018-01-02T00:46:07.992Z,94532.88
2018-01-02T00:48:35.473Z,94556.89
2018-01-02T00:51:02.925Z,94567.23
2018-01-02T00:53:30.375Z,94552.16
2018-01-02T00:55:57.869Z,94567.16
2018-01-02T00:58:26.452Z,94561.05
2018-01-02T01:00:55.616Z,94545.39
2018-01-02T01:03:23.507Z,94557.90
2018-01-02T01:05:51.236Z,94553.95
2018-01-02T01:08:18.704Z,94564.33
2018-01-02T01:10:46.320Z,94579.06
2018-01-02T01:13:13.812Z,94574.88
2018-01-02T01:15:41.273Z,94589.75
2018-01-02T01:18:08.733Z,94583.22
2018-01-02T01:20:36.301Z,94590.25
2018-01-02T01:23:03.769Z,94595.83
2018-01-02T01:25:31.225Z,94609.87
2018-01-02T01:27:58.753Z,94605.72
2018-01-02T01:30:26.224Z,94614.55
2018-01-02T01:32:53.701Z,94601.88
2018-01-02T01:35:21.152Z,94618.47
2018-01-02T01:37:48.611Z,94634.09
2018-01-02T01:40:16.079Z,94625.39
2018-01-02T01:42:43.635Z,94641.11
2018-01-02T01:45:11.104Z,94636.09
2018-01-02T01:47:38.560Z,94639.92
2018-01-02T01:50:06.024Z,94636.51
2018-01-02T01:52:33.471Z,94651.20
2018-01-02T01:55:00.944Z,94647.42
2018-01-02T01:57:28.396Z,94650.72
2018-01-02T01:59:55.937Z,94644.38
2018-01-02T02:02:23.395Z,94668.89
2018-01-02T02:04:50.864Z,94675.98
2018-01-02T02:07:18.316Z,94650.39
2018-01-02T02:09:45.785Z,94676.69
2018-01-02T02:12:13.236Z,94667.73
2018-01-02T02:14:40.708Z,94681.42
2018-01-02T02:17:08.165Z,94672.28
2018-01-02T02:19:35.632Z,94672.13
2018-01-02T02:22:03.079Z,94679.69
2018-01-02T02:24:30.554Z,94677.84
2018-01-02T02:26:58.004Z,94672.65
2018-01-02T02:29:25.605Z,94691.16
2018-01-02T02:31:53.056Z,94684.62
2018-01-02T02:34:20.525Z,94689.20
2018-01-02T02:36:47.976Z,94682.45
2018-01-02T02:39:15.452Z,94692.37
2018-01-02T02:41:42.904Z,94682.44
2018-01-02T02:44:10.380Z,94688.66
2018-01-02T02:46:37.832Z,94680.91
2018-01-02T02:49:05.299Z,94698.55
2018-01-02T02:51:32.751Z,94698.64
2018-01-02T02:54:00.216Z,94703.37
2018-01-02T02:56:27.667Z,94678.97
2018-01-02T02:58:55.219Z,94702.27
2018-01-02T03:01:22.695Z,94697.38
2018-01-02T03:03:50.163Z,94712.65
2018-01-02T03:06:17.612Z,94724.35
2018-01-02T03:08:45.079Z,94726.44
2018-01-02T03:11:12.528Z,94726.26
2018-01-02T03:13:40.008Z,94721.00
2018-01-02T03:16:07.511Z,94727.86
2018-01-02T03:18:34.980Z,94738.33
2018-01-02T03:21:02.435Z,94730.12
2018-01-02T03:23:29.904Z,94751.94
2018-01-02T03:25:57.360Z,94751.14
2018-01-02T03:28:24.909Z,94756.81
2018-01-02T03:30:52.440Z,94743.80
2018-01-02T03:33:19.852Z,94762.63
2018-01-02T03:35:47.325Z,94763.64
2018-01-02T03:38:14.780Z,94770.27
2018-01-02T03:40:42.297Z,94778.23
2018-01-02T03:43:09.757Z,94787.81
2018-01-02T03:45:37.228Z,94791.38
2018-01-02T03:48:04.679Z,94769.23
2018-01-02T03:50:32.148Z,94766.66
2018-01-02T03:52:59.600Z,94782.28
2018-01-02T03:55:27.071Z,94784.39
2018-01-02T03:57:54.520Z,94784.39
2018-01-02T04:00:21.993Z,94782.67
2018-01-02T04:02:49.465Z,94770.58
2018-01-02T04:05:16.931Z,94779.23
2018-01-02T04:07:44.385Z,94811.27
2018-01-02T04:10:11.872Z,94805.13
2018-01-02T04:12:39.326Z,94791.03
2018-01-02T04:15:06.818Z,94814.48
2018-01-02T04:17:34.281Z,94814.80
2018-01-02T04:20:01.748Z,94822.62
2018-01-02T04:22:29.195Z,94824.28
2018-01-02T04:24:56.664Z,94822.06
2018-01-02T04:27:24.114Z,94828.48
2018-01-02T04:29:51.646Z,94835.33
2018-01-02T04:32:19.114Z,94835.53
2018-01-02T04:34:46.580Z,94843.66
2018-01-02T04:37:14.032Z,94852.45
2018-01-02T04:39:41.509Z,94847.23
2018-01-02T04:42:08.960Z,94853.23
2018-01-02T04:44:36.428Z,94857.73
2018-01-02T04:47:03.934Z,94840.17
2018-01-02T04:49:31.416Z,94849.94
2018-01-02T04:51:58.872Z,94864.11
2018-01-02T04:54:26.422Z,94860.06
2018-01-02T04:56:53.880Z,94864.02
2018-01-02T04:59:21.341Z,94868.59
2018-01-02T05:01:48.820Z,94867.07
2018-01-02T05:04:16.276Z,94867.33
2018-01-02T05:06:43.748Z,94874.28
2018-01-02T05:09:11.195Z,94888.71
2018-01-02T05:11:38.668Z,94868.02
2018-01-02T05:14:06.128Z,94887.28
2018-01-02T05:16:33.595Z,94903.95
2018-01-02T05:19:01.073Z,94908.19
2018-01-02T05:21:28.545Z,94924.40
2018-01-02T05:23:55.996Z,94924.77
2018-01-02T05:26:23.467Z,94922.50
2018-01-02T05:28:50.921Z,94927.56
2018-01-02T05:31:18.393Z,94937.63
2018-01-02T05:33:45.849Z,94924.92
2018-01-02T05:36:13.316Z,94941.53
2018-01-02T05:38:40.776Z,94932.13
2018-01-02T05:41:08.244Z,94940.01
2018-01-02T05:43:35.696Z,94938.41
2018-01-02T05:46:03.168Z,94936.98
2018-01-02T05:48:30.615Z,94934.27
2018-01-02T05:50:58.080Z,94935.66
2018-01-02T05:53:25.532Z,94945.44
2018-01-02T05:55:53.001Z,94947.05
2018-01-02T05:58:20.515Z,94955.69
2018-01-02T06:00:47.988Z,94952.25
2018-01-02T06:03:15.452Z,94942.44
2018-01-02T06:05:42.899Z,94964.16
2018-01-02T06:08:10.368Z,94972.95
2018-01-02T06:10:37.825Z,94965.77
2018-01-02T06:13:05.349Z,94965.28
2018-01-02T06:15:32.800Z,94975.34
2018-01-02T06:18:00.347Z,94981.35
2018-01-02T06:20:27.936Z,94991.14
2018-01-02T06:22:55.416Z,94978.09
2018-01-02T06:25:22.953Z,94986.44
2018-01-02T06:27:50.421Z,94980.47
2018-01-02T06:30:17.877Z,94990.55
2018-01-02T06:32:45.343Z,94985.39
2018-01-02T06:35:12.792Z,94983.38
2018-01-02T06:37:40.268Z,94991.00
2018-01-02T06:40:07.725Z,94995.42
2018-01-02T06:42:35.192Z,94991.11
2018-01-02T06:45:02.640Z,94994.11
2018-01-02T06:47:30.171Z,94992.96
2018-01-02T06:49:57.624Z,94998.30
2018-01-02T06:52:25.103Z,95013.69
2018-01-02T06:54:52.556Z,95015.91
2018-01-02T06:57:20.024Z,95022.36
2018-01-02T06:59:47.471Z,95020.30
2018-01-02T07:02:14.940Z,95016.16
2018-01-02T07:04:42.399Z,95027.39
2018-01-02T07:07:09.871Z,95018.45
2018-01-02T07:09:37.320Z,95029.31
2018-01-02T07:12:04.792Z,95030.70
2018-01-02T07:14:32.248Z,95031.23
2018-01-02T07:16:59.765Z,95019.47
2018-01-02T07:19:27.219Z,95022.38
2018-01-02T07:21:54.692Z,95030.97
2018-01-02T07:24:22.153Z,95027.39
2018-01-02T07:26:49.690Z,95026.86
2018-01-02T07:29:18.605Z,95028.84
2018-01-02T07:31:46.080Z,95040.02
2018-01-02T07:34:13.603Z,95034.44
2018-01-02T07:36:41.099Z,95045.99
2018-01-02T07:39:08.548Z,95047.20
2018-01-02T07:41:36.520Z,95051.41
2018-01-02T07:44:04.047Z,95063.71
2018-01-02T07:46:31.520Z,95053.91
2018-01-02T07:48:58.976Z,95066.42
2018-01-02T07:51:26.449Z,95064.55
2018-01-02T07:53:53.904Z,95071.16
2018-01-02T07:56:21.358Z,95065.62
2018-01-02T07:58:48.892Z,95102.13
2018-01-02T08:01:16.356Z,95089.47
2018-01-02T08:03:43.828Z,95113.11
2018-01-02T08:06:11.561Z,95115.39
2018-01-02T08:08:39.030Z,95114.16
2018-01-02T08:11:06.588Z,95104.64
2018-01-02T08:13:34.081Z,95104.42
2018-01-02T08:16:02.014Z,95110.97
2018-01-02T08:18:29.484Z,95119.62
2018-01-02T08:20:56.932Z,95112.05
2018-01-02T08:23:24.405Z,95118.30
2018-01-02T08:25:51.860Z,95112.22
2018-01-02T08:28:19.328Z,95123.44
2018-01-02T08:30:46.784Z,95123.28
2018-01-02T08:33:14.257Z,95125.72
2018-01-02T08:35:41.720Z,95124.82
2018-01-02T08:38:09.193Z,95124.53
2018-01-02T08:40:36.689Z,95128.23
2018-01-02T08:43:04.159Z,95120.73
2018-01-02T08:45:31.611Z,95135.97
2018-01-02T08:47:59.075Z,95126.02
2018-01-02T08:50:26.524Z,95132.55
2018-01-02T08:52:53.997Z,95132.45
2018-01-02T08:55:21.453Z,95128.76
2018-01-02T08:57:48.920Z,95132.90
2018-01-02T09:00:16.369Z,95146.59
2018-01-02T09:02:43.852Z,95148.68
2018-01-02T09:05:11.303Z,95143.30
2018-01-02T09:07:38.777Z,95150.93
2018-01-02T09:10:06.236Z,95160.50
2018-01-02T09:12:39.412Z,95168.73
2018-01-02T09:15:06.860Z,95170.07
2018-01-02T09:17:34.332Z,95174.08
2018-01-02T09:20:01.789Z,95180.75
2018-01-02T09:22:29.260Z,95189.94
2018-01-02T09:24:56.716Z,95191.73
2018-01-02T09:27:24.223Z,95191.64
2018-01-02T09:29:51.672Z,95195.09
2018-01-02T09:32:19.129Z,95203.81
2018-01-02T09:34:46.604Z,95205.30
2018-01-02T09:37:14.061Z,95190.00
2018-01-02T09:39:41.552Z,95206.86
2018-01-02T09:42:09.008Z,95202.92
2018-01-02T09:44:36.477Z,95199.53
2018-01-02T09:47:03.931Z,95195.12
2018-01-02T09:49:31.404Z,95229.89
2018-01-02T09:51:58.913Z,95229.81
2018-01-02T09:54:26.448Z,95218.28
2018-01-02T09:56:53.904Z,95239.89
2018-01-02T09:59:21.376Z,95233.92
2018-01-02T10:01:48.828Z,95247.90
2018-01-02T10:04:16.304Z,95248.67
2018-01-02T10:06:43.760Z,95249.49
2018-01-02T10:09:11.235Z,95247.04
2018-01-02T10:11:38.713Z,95254.78
2018-01-02T10:14:06.203Z,95252.31
2018-01-02T10:16:33.660Z,95257.87
2018-01-02T10:19:01.132Z,95273.42
2018-01-02T10:21:28.589Z,95263.61
2018-01-02T10:23:56.068Z,95266.14
2018-01-02T10:26:23.520Z,95275.55
2018-01-02T10:28:51.022Z,95274.17
2018-01-02T10:31:18.472Z,95274.07
2018-01-02T10:33:45.941Z,95269.21
2018-01-02T10:36:13.395Z,95279.78
2018-01-02T10:38:40.881Z,95281.03
2018-01-02T10:41:08.336Z,95283.36
2018-01-02T10:43:35.808Z,95281.81
2018-01-02T10:46:03.262Z,95275.45
2018-01-02T10:48:30.815Z,95284.67
2018-01-02T10:50:58.271Z,95278.61
2018-01-02T10:53:25.744Z,95277.83
2018-01-02T10:55:53.203Z,95278.50
2018-01-02T10:58:20.668Z,95267.34
2018-01-02T11:01:04.941Z,95275.41
2018-01-02T11:03:32.456Z,95273.41
2018-01-02T11:06:00.344Z,95257.09
2018-01-02T11:08:27.814Z,95268.99
2018-01-02T11:11:01.160Z,95265.30
2018-01-02T11:13:36.546Z,95285.71
2018-01-02T11:16:04.895Z,95281.27
2018-01-02T11:18:32.363Z,95276.49
2018-01-02T11:21:00.151Z,95277.34
2018-01-02T11:23:27.689Z,95276.58
2018-01-02T11:25:55.157Z,95278.53
2018-01-02T11:28:22.608Z,95289.75
2018-01-02T11:30:50.124Z,95292.55
2018-01-02T11:33:17.580Z,95279.31
2018-01-02T11:35:45.222Z,95287.55
2018-01-02T11:38:12.829Z,95267.45
2018-01-02T11:40:40.361Z,95284.16
2018-01-02T11:43:07.846Z,95280.03
2018-01-02T11:45:35.411Z,95285.34
2018-01-02T11:48:02.972Z,95260.31
2018-01-02T11:50:30.694Z,95280.71
2018-01-02T11:52:58.160Z,95281.02
2018-01-02T11:55:25.961Z,95280.48
2018-01-02T11:57:53.468Z,95276.76
2018-01-02T12:00:20.936Z,95268.73
2018-01-02T12:02:48.388Z,95284.59
2018-01-02T12:05:16.432Z,95282.98
2018-01-02T12:07:43.885Z,95285.02
2018-01-02T12:10:11.352Z,95273.80
2018-01-02T12:12:38.804Z,95283.08
2018-01-02T12:15:06.507Z,95290.37
2018-01-02T12:17:34.024Z,95292.77
2018-01-02T12:20:01.500Z,95292.81
2018-01-02T12:22:28.992Z,95282.63
2018-01-02T12:24:56.460Z,95287.38
2018-01-02T12:27:23.912Z,95297.27
2018-01-02T12:29:51.420Z,95287.43
2018-01-02T12:32:18.939Z,95276.47
2018-01-02T12:34:46.411Z,95292.72
2018-01-02T12:37:13.939Z,95281.95
2018-01-02T12:39:41.420Z,95296.20
2018-01-02T12:42:08.877Z,95300.24
2018-01-02T12:44:36.356Z,95297.55
2018-01-02T12:47:04.804Z,95303.13
2018-01-02T12:49:32.276Z,95292.08
2018-01-02T12:51:59.728Z,95302.00
2018-01-02T12:54:27.197Z,95297.51
2018-01-02T12:56:54.649Z,95293.77
2018-01-02T12:59:22.120Z,95306.75
2018-01-02T13:01:49.584Z,95301.26
2018-01-02T13:04:17.052Z,95298.73
2018-01-02T13:06:44.562Z,95292.86
2018-01-02T13:09:12.032Z,95300.14
2018-01-02T13:11:39.484Z,95285.74
2018-01-02T13:14:07.143Z,95311.81
2018-01-02T13:16:34.592Z,95313.33
2018-01-02T13:19:02.063Z,95314.84
2018-01-02T13:21:29.518Z,95326.26
2018-01-02T13:23:56.990Z,95317.41
2018-01-02T13:26:24.454Z,95318.81
2018-01-02T13:28:51.928Z,95315.75
2018-01-02T13:31:19.384Z,95326.97
2018-01-02T13:33:46.938Z,95332.80
2018-01-02T13:36:14.568Z,95331.32
2018-01-02T13:38:42.097Z,95337.13
2018-01-02T13:41:09.552Z,95334.16
2018-01-02T13:43:37.136Z,95330.44
2018-01-02T13:46:04.702Z,95341.48
2018-01-02T13:48:32.266Z,95337.69
2018-01-02T13:51:00.771Z,95332.47
2018-01-02T13:53:28.339Z,95343.19
2018-01-02T13:55:55.808Z,95343.72
2018-01-02T13:58:23.326Z,95340.99
2018-01-02T14:00:50.911Z,95350.93
2018-01-02T14:03:18.381Z,95351.78
2018-01-02T14:05:45.872Z,95350.75
2018-01-02T14:08:13.335Z,95353.34
2018-01-02T14:10:40.799Z,95345.66
2018-01-02T14:13:08.487Z,95341.59
2018-01-02T14:15:36.096Z,95347.44
2018-01-02T14:18:04.601Z,95353.52
2018-01-02T14:20:32.568Z,95360.22
2018-01-02T14:23:00.089Z,95354.76
2018-01-02T14:25:27.568Z,95351.23
2018-01-02T14:27:55.024Z,95353.44
2018-01-02T14:30:22.529Z,95357.41
2018-01-02T14:32:49.996Z,95361.30
2018-01-02T14:35:17.464Z,95364.88
2018-01-02T14:37:44.915Z,95365.06
2018-01-02T14:40:12.424Z,95380.20
2018-01-02T14:42:39.892Z,95362.85
2018-01-02T14:45:07.372Z,95381.03
2018-01-02T14:47:34.824Z,95393.55
2018-01-02T14:50:02.292Z,95386.27
2018-01-02T14:52:29.797Z,95393.91
2018-01-02T14:54:57.264Z,95399.64
2018-01-02T14:57:24.769Z,95398.20
2018-01-02T14:59:52.277Z,95405.52
2018-01-02T15:02:19.720Z,95403.53
2018-01-02T15:04:47.184Z,95413.52
2018-01-02T15:07:14.646Z,95419.72
2018-01-02T15:09:42.112Z,95422.57
2018-01-02T15:12:09.564Z,95438.80
2018-01-02T15:14:37.036Z,95435.61
2018-01-02T15:17:04.504Z,95445.84
2018-01-02T15:19:31.976Z,95452.83
2018-01-02T15:21:59.451Z,95445.08
2018-01-02T15:24:26.920Z,95446.50
2018-01-02T15:26:54.372Z,95455.36
2018-01-02T15:29:21.840Z,95450.52
2018-01-02T15:31:49.295Z,95450.61
2018-01-02T15:34:16.753Z,95449.13
2018-01-02T15:36:44.222Z,95445.68
2018-01-02T15:39:11.737Z,95438.88
2018-01-02T15:41:39.209Z,95448.06
2018-01-02T15:44:06.667Z,95454.00
2018-01-02T15:46:34.207Z,95453.77
2018-01-02T15:49:01.663Z,95451.82
2018-01-02T15:51:29.135Z,95460.63
2018-01-02T15:53:56.626Z,95471.56
2018-01-02T15:56:24.138Z,95468.72
2018-01-02T15:58:51.596Z,95464.10
2018-01-02T16:01:21.116Z,95480.97
2018-01-02T16:03:50.597Z,95478.78
2018-01-02T16:06:20.199Z,95486.66
2018-01-02T16:08:47.684Z,95490.08
2018-01-02T16:11:18.146Z,95487.67
2018-01-02T16:13:45.768Z,95492.73
2018-01-02T16:16:13.414Z,95488.67
2018-01-02T16:18:40.876Z,95488.08
2018-01-02T16:21:08.354Z,95483.13
2018-01-02T16:23:35.811Z,95481.06
2018-01-02T16:26:03.288Z,95480.42
2018-01-02T16:28:30.748Z,95476.78
2018-01-02T16:30:58.225Z,95473.13
2018-01-02T16:33:25.829Z,95471.03
2018-01-02T16:35:53.320Z,95465.84
2018-01-02T16:38:20.780Z,95464.70
2018-01-02T16:40:48.307Z,95452.14
2018-01-02T16:43:15.760Z,95454.73
2018-01-02T16:45:43.250Z,95452.34
2018-01-02T16:48:10.724Z,95451.13
2018-01-02T16:50:38.205Z,95449.92
2018-01-02T16:53:05.672Z,95443.25
2018-01-02T16:55:33.140Z,95437.49
2018-01-02T16:58:00.604Z,95432.11
2018-01-02T17:00:28.944Z,95422.11
2018-01-02T17:02:56.439Z,95412.59
2018-01-02T17:05:23.908Z,95409.14
2018-01-02T17:07:51.368Z,95407.40
2018-01-02T17:10:18.824Z,95397.63
2018-01-02T17:12:46.301Z,95397.36
2018-01-02T17:15:13.752Z,95402.11
2018-01-02T17:17:41.220Z,95393.21
2018-01-02T17:20:08.680Z,95403.05
2018-01-02T17:22:36.156Z,95403.52
2018-01-02T17:25:03.612Z,95410.12
2018-01-02T17:27:31.088Z,95415.63
2018-01-02T17:29:58.590Z,95416.77
2018-01-02T17:32:26.048Z,95419.17
2018-01-02T17:34:53.500Z,95415.91
2018-01-02T17:37:20.968Z,95414.98
2018-01-02T17:39:48.436Z,95426.02
2018-01-02T17:42:15.914Z,95424.65
2018-01-02T17:44:43.375Z,95424.13
2018-01-02T17:47:10.853Z,95427.36
2018-01-02T17:49:38.304Z,95424.71
2018-01-02T17:52:05.772Z,95436.27
2018-01-02T17:54:33.223Z,95434.07
2018-01-02T17:57:00.708Z,95445.06
2018-01-02T17:59:28.164Z,95441.09
2018-01-02T18:01:55.669Z,95436.20
2018-01-02T18:04:23.129Z,95429.63
2018-01-02T18:06:50.617Z,95439.25
2018-01-02T18:09:18.103Z,95435.03
2018-01-02T18:11:45.576Z,95435.48
2018-01-02T18:14:13.096Z,95442.86
2018-01-02T18:16:41.524Z,95455.54
2018-01-02T18:19:08.980Z,95446.25
2018-01-02T18:21:36.447Z,95440.91
2018-01-02T18:24:03.972Z,95441.81
2018-01-02T18:26:31.516Z,95439.34
2018-01-02T18:28:59.024Z,95442.17
2018-01-02T18:31:26.508Z,95441.96
2018-01-02T18:33:53.960Z,95445.40
2018-01-02T18:36:21.412Z,95450.13
2018-01-02T18:39:00.008Z,95442.30
2018-01-02T18:41:29.467Z,95451.30
2018-01-02T18:43:56.957Z,95450.39
2018-01-02T18:46:24.420Z,95452.31
2018-01-02T18:48:51.964Z,95447.69
2018-01-02T18:51:23.018Z,95443.17
2018-01-02T18:53:50.556Z,95444.05
2018-01-02T18:56:18.058Z,95449.75
2018-01-02T18:58:45.514Z,95451.11
2018-01-02T19:01:16.349Z,95450.52
2018-01-02T19:03:43.916Z,95445.80
2018-01-02T19:06:12.639Z,95451.13
2018-01-02T19:08:40.152Z,95446.45
2018-01-02T19:11:07.716Z,95443.93
2018-01-02T19:13:36.833Z,95448.21
2018-01-02T19:16:04.459Z,95446.39
2018-01-02T19:18:33.303Z,95447.25
2018-01-02T19:21:00.800Z,95448.31
2018-01-02T19:23:28.277Z,95441.34
2018-01-02T19:25:55.736Z,95445.84
2018-01-02T19:28:23.189Z,95458.44
2018-01-02T19:30:50.781Z,95449.26
2018-01-02T19:33:18.240Z,95440.38
2018-01-02T19:35:46.095Z,95421.28
2018-01-02T19:38:13.564Z,95427.65
2018-01-02T19:40:52.507Z,95412.09
2018-01-02T19:43:20.033Z,95423.38
2018-01-02T19:45:47.509Z,95422.78
2018-01-02T19:48:14.977Z,95427.99
2018-01-02T19:50:42.452Z,95413.61
2018-01-02T19:53:09.912Z,95423.28
2018-01-02T19:55:37.388Z,95423.03
2018-01-02T19:58:04.916Z,95416.86
2018-01-02T20:00:32.434Z,95412.83
2018-01-02T20:02:59.912Z,95405.70
2018-01-02T20:05:27.396Z,95399.34
2018-01-02T20:07:54.852Z,95397.27
2018-01-02T20:10:22.328Z,95395.34
2018-01-02T20:12:53.198Z,95401.78
2018-01-02T20:15:21.072Z,95395.94
2018-01-02T20:17:48.532Z,95392.26
2018-01-02T20:20:16.012Z,95389.21
2018-01-02T20:22:43.533Z,95376.74
2018-01-02T20:25:11.020Z,95365.11
2018-01-02T20:27:38.589Z,95366.13
2018-01-02T20:30:06.134Z,95354.50
2018-01-02T20:32:33.782Z,95355.08
2018-01-02T20:35:02.283Z,95346.80
2018-01-02T20:37:32.331Z,95343.71
2018-01-02T20:39:59.908Z,95335.89
2018-01-02T20:42:27.368Z,95333.31
2018-01-02T20:44:54.844Z,95328.73
2018-01-02T20:47:22.308Z,95324.00
2018-01-02T20:49:49.784Z,95320.39
2018-01-02T20:52:17.245Z,95315.73
2018-01-02T20:54:44.724Z,95312.77
2018-01-02T20:57:14.144Z,95312.53
2018-01-02T20:59:41.755Z,95303.36
2018-01-02T21:02:09.301Z,95303.22
2018-01-02T21:04:36.779Z,95296.72
2018-01-02T21:07:04.244Z,95294.84
2018-01-02T21:09:31.728Z,95290.60
2018-01-02T21:11:59.188Z,95298.30
2018-01-02T21:14:26.676Z,95292.70
2018-01-02T21:16:55.924Z,95287.05
2018-01-02T21:19:23.476Z,95287.09
2018-01-02T21:21:50.939Z,95290.44
2018-01-02T21:24:18.405Z,95280.85
2018-01-02T21:26:45.884Z,95286.31
2018-01-02T21:29:13.357Z,95275.67
2018-01-02T21:31:41.185Z,95275.08
2018-01-02T21:34:08.680Z,95272.86
2018-01-02T21:36:36.156Z,95276.36
2018-01-02T21:39:03.851Z,95271.85
2018-01-02T21:41:31.384Z,95269.59
2018-01-02T21:43:58.900Z,95262.72
2018-01-02T21:46:26.520Z,95264.12
2018-01-02T21:48:54.008Z,95257.30
2018-01-02T21:51:21.484Z,95250.77
2018-01-02T21:53:48.943Z,95252.40
2018-01-02T21:56:16.446Z,95240.59
2018-01-02T21:58:43.896Z,95238.91
2018-01-02T22:01:11.374Z,95238.74
2018-01-02T22:03:38.828Z,95233.41
2018-01-02T22:06:06.311Z,95230.02
2018-01-02T22:08:33.772Z,95232.58
2018-01-02T22:11:01.244Z,95226.14
2018-01-02T22:13:28.699Z,95218.59
2018-01-02T22:15:56.168Z,95211.80
2018-01-02T22:18:23.628Z,95203.36
2018-01-02T22:20:51.100Z,95203.51
2018-01-02T22:23:18.584Z,95207.12
2018-01-02T22:25:46.060Z,95201.85
2018-01-02T22:28:13.512Z,95198.94
2018-01-02T22:30:40.984Z,95201.06
2018-01-02T22:33:08.435Z,95197.33
2018-01-02T22:35:35.912Z,95187.45
2018-01-02T22:38:03.372Z,95181.75
2018-01-02T22:40:30.840Z,95176.94
2018-01-02T22:42:58.339Z,95171.51
2018-01-02T22:45:25.808Z,95172.06
2018-01-02T22:47:53.268Z,95165.40
2018-01-02T22:50:20.815Z,95160.84
2018-01-02T22:52:48.270Z,95160.65
2018-01-02T22:55:15.726Z,95157.11
2018-01-02T22:57:43.195Z,95151.09
2018-01-02T23:00:10.647Z,95151.61
2018-01-02T23:02:38.124Z,95142.21
2018-01-02T23:05:05.580Z,95142.36
2018-01-02T23:07:33.067Z,95143.44
2018-01-02T23:10:00.516Z,95142.93
2018-01-02T23:12:27.988Z,95136.67
2018-01-02T23:14:55.444Z,95129.26
2018-01-02T23:17:22.919Z,95127.11
2018-01-02T23:19:50.402Z,95130.06
2018-01-02T23:22:17.868Z,95117.13
2018-01-02T23:24:45.316Z,95115.77
2018-01-02T23:27:12.784Z,95114.78
2018-01-02T23:29:40.232Z,95105.34
2018-01-02T23:32:07.791Z,95095.20
2018-01-02T23:34:35.244Z,95089.90
2018-01-02T23:37:02.712Z,95078.05
2018-01-02T23:39:30.164Z,95072.59
2018-01-02T23:41:57.632Z,95067.13
2018-01-02T23:44:25.090Z,95064.44
2018-01-02T23:46:52.556Z,95068.66
2018-01-02T23:49:20.021Z,95061.48
2018-01-02T23:51:47.488Z,95066.21
2018-01-02T23:54:14.944Z,95070.25
2018-01-02T23:56:42.412Z,95060.61
2018-01-02T23:59:09.859Z,95052.97
